sensor_id;sensor_type;location;lat;lon;timestamp;P1;durP1;ratioP1;P2;durP2;ratioP2
75295;SDS011;64623;44.738;37.804;2024-02-14T00:00:26;9.48;;;4.53;;
75295;SDS011;64623;44.738;37.804;2024-02-14T00:01:29;8.77;;;6.88;;
75295;SDS011;64623;44.738;37.804;2024-02-14T00:02:32;10.10;;;7.47;;
75295;SDS011;64623;44.738;37.804;2024-02-14T00:03:36;10.23;;;6.47;;
75295;SDS011;64623;44.738;37.804;2024-02-14T00:04:40;8.73;;;7.80;;
75295;SDS011;64623;44.738;37.804;2024-02-14T00:05:44;11.32;;;6.80;;
75295;SDS011;64623;44.738;37.804;2024-02-14T00:06:47;10.65;;;6.32;;
75295;SDS011;64623;44.738;37.804;2024-02-14T00:07:50;9.82;;;7.25;;
75295;SDS011;64623;44.738;37.804;2024-02-14T00:08:54;12.00;;;7.25;;
75295;SDS011;64623;44.738;37.804;2024-02-14T00:09:57;8.45;;;6.55;;
75295;SDS011;64623;44.738;37.804;2024-02-14T00:11:00;11.23;;;6.47;;
75295;SDS011;64623;44.738;37.804;2024-02-14T00:12:05;9.07;;;6.72;;
75295;SDS011;64623;44.738;37.804;2024-02-14T00:13:08;9.05;;;5.88;;
75295;SDS011;64623;44.738;37.804;2024-02-14T00:14:12;11.50;;;6.88;;
75295;SDS011;64623;44.738;37.804;2024-02-14T00:15:16;11.45;;;7.28;;
75295;SDS011;64623;44.738;37.804;2024-02-14T00:16:19;15.02;;;7.78;;
75295;SDS011;64623;44.738;37.804;2024-02-14T00:17:23;11.90;;;6.85;;
75295;SDS011;64623;44.738;37.804;2024-02-14T00:18:26;12.68;;;7.13;;
75295;SDS011;64623;44.738;37.804;2024-02-14T00:19:30;7.88;;;5.13;;
75295;SDS011;64623;44.738;37.804;2024-02-14T00:20:34;7.85;;;6.38;;
75295;SDS011;64623;44.738;37.804;2024-02-14T00:21:38;8.63;;;5.85;;
75295;SDS011;64623;44.738;37.804;2024-02-14T00:22:41;7.30;;;6.05;;
75295;SDS011;64623;44.738;37.804;2024-02-14T00:23:44;10.25;;;6.18;;
75295;SDS011;64623;44.738;37.804;2024-02-14T00:24:48;9.32;;;5.97;;
75295;SDS011;64623;44.738;37.804;2024-02-14T00:25:51;9.60;;;4.85;;
75295;SDS011;64623;44.738;37.804;2024-02-14T00:26:54;12.65;;;4.75;;
75295;SDS011;64623;44.738;37.804;2024-02-14T00:27:59;11.65;;;6.00;;
75295;SDS011;64623;44.738;37.804;2024-02-14T00:29:03;8.95;;;5.68;;
75295;SDS011;64623;44.738;37.804;2024-02-14T00:30:06;7.00;;;4.25;;
75295;SDS011;64623;44.738;37.804;2024-02-14T00:31:30;7.13;;;5.07;;
75295;SDS011;64623;44.738;37.804;2024-02-14T00:32:49;7.32;;;5.35;;
75295;SDS011;64623;44.738;37.804;2024-02-14T00:33:53;5.97;;;4.00;;
75295;SDS011;64623;44.738;37.804;2024-02-14T00:34:58;9.60;;;5.30;;
75295;SDS011;64623;44.738;37.804;2024-02-14T00:36:01;8.07;;;3.58;;
75295;SDS011;64623;44.738;37.804;2024-02-14T00:37:05;9.00;;;5.38;;
75295;SDS011;64623;44.738;37.804;2024-02-14T00:38:08;8.27;;;5.13;;
75295;SDS011;64623;44.738;37.804;2024-02-14T00:39:12;8.57;;;5.40;;
75295;SDS011;64623;44.738;37.804;2024-02-14T00:40:15;7.32;;;5.38;;
75295;SDS011;64623;44.738;37.804;2024-02-14T00:41:20;6.72;;;5.00;;
75295;SDS011;64623;44.738;37.804;2024-02-14T00:42:23;6.90;;;6.03;;
75295;SDS011;64623;44.738;37.804;2024-02-14T00:43:27;7.47;;;5.75;;
75295;SDS011;64623;44.738;37.804;2024-02-14T00:44:30;10.52;;;6.25;;
75295;SDS011;64623;44.738;37.804;2024-02-14T00:45:34;13.57;;;6.43;;
75295;SDS011;64623;44.738;37.804;2024-02-14T00:46:38;10.57;;;6.35;;
75295;SDS011;64623;44.738;37.804;2024-02-14T00:47:41;9.50;;;6.15;;
75295;SDS011;64623;44.738;37.804;2024-02-14T00:48:45;13.55;;;6.47;;
75295;SDS011;64623;44.738;37.804;2024-02-14T00:49:48;10.05;;;7.05;;
75295;SDS011;64623;44.738;37.804;2024-02-14T00:50:51;10.95;;;7.00;;
75295;SDS011;64623;44.738;37.804;2024-02-14T00:51:55;11.63;;;6.78;;
75295;SDS011;64623;44.738;37.804;2024-02-14T00:52:58;11.63;;;6.45;;
75295;SDS011;64623;44.738;37.804;2024-02-14T00:54:01;10.77;;;6.25;;
75295;SDS011;64623;44.738;37.804;2024-02-14T00:55:04;14.70;;;6.82;;
75295;SDS011;64623;44.738;37.804;2024-02-14T00:56:08;10.27;;;6.25;;
75295;SDS011;64623;44.738;37.804;2024-02-14T00:57:11;11.60;;;6.65;;
75295;SDS011;64623;44.738;37.804;2024-02-14T00:58:15;9.48;;;6.20;;
75295;SDS011;64623;44.738;37.804;2024-02-14T00:59:18;9.23;;;6.03;;
75295;SDS011;64623;44.738;37.804;2024-02-14T01:00:21;6.70;;;5.88;;
75295;SDS011;64623;44.738;37.804;2024-02-14T01:01:24;8.35;;;5.82;;
75295;SDS011;64623;44.738;37.804;2024-02-14T01:02:28;7.73;;;6.53;;
75295;SDS011;64623;44.738;37.804;2024-02-14T01:03:32;7.18;;;4.88;;
75295;SDS011;64623;44.738;37.804;2024-02-14T01:04:36;7.35;;;4.90;;
75295;SDS011;64623;44.738;37.804;2024-02-14T01:05:39;6.05;;;4.97;;
75295;SDS011;64623;44.738;37.804;2024-02-14T01:06:43;7.30;;;4.00;;
75295;SDS011;64623;44.738;37.804;2024-02-14T01:07:46;5.93;;;4.00;;
75295;SDS011;64623;44.738;37.804;2024-02-14T01:08:50;6.57;;;5.00;;
75295;SDS011;64623;44.738;37.804;2024-02-14T01:09:53;8.82;;;5.22;;
75295;SDS011;64623;44.738;37.804;2024-02-14T01:10:57;7.50;;;5.55;;
75295;SDS011;64623;44.738;37.804;2024-02-14T01:12:00;8.48;;;6.18;;
75295;SDS011;64623;44.738;37.804;2024-02-14T01:13:03;11.57;;;5.22;;
75295;SDS011;64623;44.738;37.804;2024-02-14T01:14:07;7.10;;;5.38;;
75295;SDS011;64623;44.738;37.804;2024-02-14T01:15:11;7.88;;;4.82;;
75295;SDS011;64623;44.738;37.804;2024-02-14T01:16:14;5.97;;;4.97;;
75295;SDS011;64623;44.738;37.804;2024-02-14T01:17:17;10.65;;;4.07;;
75295;SDS011;64623;44.738;37.804;2024-02-14T01:18:20;6.20;;;5.47;;
75295;SDS011;64623;44.738;37.804;2024-02-14T01:19:23;6.32;;;4.70;;
75295;SDS011;64623;44.738;37.804;2024-02-14T01:20:31;5.68;;;5.05;;
75295;SDS011;64623;44.738;37.804;2024-02-14T01:21:34;7.95;;;4.95;;
75295;SDS011;64623;44.738;37.804;2024-02-14T01:22:37;5.43;;;4.53;;
75295;SDS011;64623;44.738;37.804;2024-02-14T01:23:53;6.05;;;4.45;;
75295;SDS011;64623;44.738;37.804;2024-02-14T01:24:56;5.53;;;4.03;;
75295;SDS011;64623;44.738;37.804;2024-02-14T01:26:01;8.35;;;4.43;;
75295;SDS011;64623;44.738;37.804;2024-02-14T01:27:04;5.57;;;3.45;;
75295;SDS011;64623;44.738;37.804;2024-02-14T01:28:08;6.13;;;5.05;;
75295;SDS011;64623;44.738;37.804;2024-02-14T01:29:11;6.68;;;4.72;;
75295;SDS011;64623;44.738;37.804;2024-02-14T01:30:14;6.75;;;5.57;;
75295;SDS011;64623;44.738;37.804;2024-02-14T01:31:19;6.72;;;5.80;;
75295;SDS011;64623;44.738;37.804;2024-02-14T01:32:23;8.20;;;5.90;;
75295;SDS011;64623;44.738;37.804;2024-02-14T01:33:26;6.50;;;5.35;;
75295;SDS011;64623;44.738;37.804;2024-02-14T01:34:31;8.65;;;5.75;;
75295;SDS011;64623;44.738;37.804;2024-02-14T01:35:34;6.55;;;5.18;;
75295;SDS011;64623;44.738;37.804;2024-02-14T01:36:38;7.07;;;5.00;;
75295;SDS011;64623;44.738;37.804;2024-02-14T01:37:41;6.75;;;4.32;;
75295;SDS011;64623;44.738;37.804;2024-02-14T01:38:47;6.78;;;6.10;;
75295;SDS011;64623;44.738;37.804;2024-02-14T01:39:51;7.35;;;5.45;;
75295;SDS011;64623;44.738;37.804;2024-02-14T01:40:54;7.85;;;5.68;;
75295;SDS011;64623;44.738;37.804;2024-02-14T01:41:57;7.05;;;6.03;;
75295;SDS011;64623;44.738;37.804;2024-02-14T01:43:00;9.55;;;5.97;;
75295;SDS011;64623;44.738;37.804;2024-02-14T01:44:04;5.97;;;5.18;;
75295;SDS011;64623;44.738;37.804;2024-02-14T01:45:07;9.70;;;6.00;;
75295;SDS011;64623;44.738;37.804;2024-02-14T01:46:20;20.02;;;6.97;;
75295;SDS011;64623;44.738;37.804;2024-02-14T01:47:29;21.98;;;6.38;;
75295;SDS011;64623;44.738;37.804;2024-02-14T01:48:34;16.85;;;6.95;;
75295;SDS011;64623;44.738;37.804;2024-02-14T01:49:38;17.23;;;6.07;;
75295;SDS011;64623;44.738;37.804;2024-02-14T01:50:47;26.13;;;7.40;;
75295;SDS011;64623;44.738;37.804;2024-02-14T01:51:50;11.98;;;6.43;;
75295;SDS011;64623;44.738;37.804;2024-02-14T01:52:54;21.10;;;7.30;;
75295;SDS011;64623;44.738;37.804;2024-02-14T01:54:00;26.98;;;8.48;;
75295;SDS011;64623;44.738;37.804;2024-02-14T01:55:04;20.10;;;9.35;;
75295;SDS011;64623;44.738;37.804;2024-02-14T01:56:10;23.33;;;7.50;;
75295;SDS011;64623;44.738;37.804;2024-02-14T01:57:13;15.35;;;6.93;;
75295;SDS011;64623;44.738;37.804;2024-02-14T01:58:16;13.18;;;6.72;;
75295;SDS011;64623;44.738;37.804;2024-02-14T01:59:21;13.65;;;7.80;;
75295;SDS011;64623;44.738;37.804;2024-02-14T02:00:25;14.82;;;7.18;;
75295;SDS011;64623;44.738;37.804;2024-02-14T02:01:30;22.30;;;7.82;;
75295;SDS011;64623;44.738;37.804;2024-02-14T02:02:34;22.98;;;8.20;;
75295;SDS011;64623;44.738;37.804;2024-02-14T02:03:48;20.63;;;7.63;;
75295;SDS011;64623;44.738;37.804;2024-02-14T02:04:51;18.70;;;7.97;;
75295;SDS011;64623;44.738;37.804;2024-02-14T02:05:55;13.57;;;7.50;;
75295;SDS011;64623;44.738;37.804;2024-02-14T02:06:58;15.25;;;7.57;;
75295;SDS011;64623;44.738;37.804;2024-02-14T02:08:02;18.40;;;8.15;;
75295;SDS011;64623;44.738;37.804;2024-02-14T02:09:05;12.85;;;7.60;;
75295;SDS011;64623;44.738;37.804;2024-02-14T02:10:10;15.48;;;8.73;;
75295;SDS011;64623;44.738;37.804;2024-02-14T02:11:18;14.43;;;7.93;;
75295;SDS011;64623;44.738;37.804;2024-02-14T02:12:41;21.88;;;9.48;;
75295;SDS011;64623;44.738;37.804;2024-02-14T02:15:46;24.02;;;8.52;;
75295;SDS011;64623;44.738;37.804;2024-02-14T02:21:27;9.38;;;4.88;;
75295;SDS011;64623;44.738;37.804;2024-02-14T02:22:30;8.63;;;5.60;;
75295;SDS011;64623;44.738;37.804;2024-02-14T02:23:55;8.15;;;5.70;;
75295;SDS011;64623;44.738;37.804;2024-02-14T02:24:58;7.43;;;5.38;;
75295;SDS011;64623;44.738;37.804;2024-02-14T02:26:02;6.07;;;4.88;;
75295;SDS011;64623;44.738;37.804;2024-02-14T02:27:25;4.95;;;4.45;;
75295;SDS011;64623;44.738;37.804;2024-02-14T02:28:48;5.85;;;3.40;;
75295;SDS011;64623;44.738;37.804;2024-02-14T02:29:51;4.95;;;4.13;;
75295;SDS011;64623;44.738;37.804;2024-02-14T02:30:55;7.53;;;4.95;;
75295;SDS011;64623;44.738;37.804;2024-02-14T02:31:58;6.60;;;4.88;;
75295;SDS011;64623;44.738;37.804;2024-02-14T02:33:02;5.90;;;3.60;;
75295;SDS011;64623;44.738;37.804;2024-02-14T02:34:06;7.30;;;4.75;;
75295;SDS011;64623;44.738;37.804;2024-02-14T02:35:10;7.03;;;4.90;;
75295;SDS011;64623;44.738;37.804;2024-02-14T02:36:33;6.65;;;4.72;;
75295;SDS011;64623;44.738;37.804;2024-02-14T02:37:57;10.68;;;4.32;;
75295;SDS011;64623;44.738;37.804;2024-02-14T02:39:20;10.95;;;5.30;;
75295;SDS011;64623;44.738;37.804;2024-02-14T02:40:43;8.48;;;5.68;;
75295;SDS011;64623;44.738;37.804;2024-02-14T02:42:07;5.80;;;4.82;;
75295;SDS011;64623;44.738;37.804;2024-02-14T02:43:31;6.10;;;4.20;;
75295;SDS011;64623;44.738;37.804;2024-02-14T02:44:54;7.72;;;5.10;;
75295;SDS011;64623;44.738;37.804;2024-02-14T02:46:23;7.30;;;5.07;;
75295;SDS011;64623;44.738;37.804;2024-02-14T02:47:47;5.95;;;5.20;;
75295;SDS011;64623;44.738;37.804;2024-02-14T02:49:14;6.43;;;5.63;;
75295;SDS011;64623;44.738;37.804;2024-02-14T02:50:21;6.57;;;5.97;;
75295;SDS011;64623;44.738;37.804;2024-02-14T02:51:44;9.15;;;4.47;;
75295;SDS011;64623;44.738;37.804;2024-02-14T02:53:07;7.45;;;5.75;;
75295;SDS011;64623;44.738;37.804;2024-02-14T02:54:30;6.93;;;5.75;;
75295;SDS011;64623;44.738;37.804;2024-02-14T02:55:54;8.20;;;7.15;;
75295;SDS011;64623;44.738;37.804;2024-02-14T02:57:01;9.55;;;6.80;;
75295;SDS011;64623;44.738;37.804;2024-02-14T02:58:07;10.32;;;9.30;;
75295;SDS011;64623;44.738;37.804;2024-02-14T02:59:10;12.55;;;9.75;;
75295;SDS011;64623;44.738;37.804;2024-02-14T03:00:16;14.40;;;11.23;;
75295;SDS011;64623;44.738;37.804;2024-02-14T03:01:27;10.43;;;9.32;;
75295;SDS011;64623;44.738;37.804;2024-02-14T03:02:50;9.98;;;8.98;;
75295;SDS011;64623;44.738;37.804;2024-02-14T03:04:14;9.02;;;7.95;;
75295;SDS011;64623;44.738;37.804;2024-02-14T03:05:37;10.15;;;7.65;;
75295;SDS011;64623;44.738;37.804;2024-02-14T03:06:57;13.05;;;10.35;;
75295;SDS011;64623;44.738;37.804;2024-02-14T03:08:20;10.07;;;8.25;;
75295;SDS011;64623;44.738;37.804;2024-02-14T03:09:44;12.00;;;8.63;;
75295;SDS011;64623;44.738;37.804;2024-02-14T03:11:07;12.60;;;8.63;;
75295;SDS011;64623;44.738;37.804;2024-02-14T03:12:30;11.73;;;8.60;;
75295;SDS011;64623;44.738;37.804;2024-02-14T03:13:57;14.27;;;8.98;;
75295;SDS011;64623;44.738;37.804;2024-02-14T03:15:20;19.65;;;8.23;;
75295;SDS011;64623;44.738;37.804;2024-02-14T03:16:24;11.25;;;8.18;;
75295;SDS011;64623;44.738;37.804;2024-02-14T03:17:27;10.10;;;7.75;;
75295;SDS011;64623;44.738;37.804;2024-02-14T03:18:31;10.77;;;7.43;;
75295;SDS011;64623;44.738;37.804;2024-02-14T03:19:35;11.70;;;8.52;;
75295;SDS011;64623;44.738;37.804;2024-02-14T03:20:41;8.95;;;7.38;;
75295;SDS011;64623;44.738;37.804;2024-02-14T03:21:44;9.55;;;7.65;;
75295;SDS011;64623;44.738;37.804;2024-02-14T03:22:49;12.80;;;7.22;;
75295;SDS011;64623;44.738;37.804;2024-02-14T03:23:52;8.73;;;7.70;;
75295;SDS011;64623;44.738;37.804;2024-02-14T03:24:56;9.50;;;6.90;;
75295;SDS011;64623;44.738;37.804;2024-02-14T03:26:00;8.63;;;7.57;;
75295;SDS011;64623;44.738;37.804;2024-02-14T03:27:04;12.43;;;6.90;;
75295;SDS011;64623;44.738;37.804;2024-02-14T03:28:10;16.48;;;7.53;;
75295;SDS011;64623;44.738;37.804;2024-02-14T03:29:15;10.50;;;7.82;;
75295;SDS011;64623;44.738;37.804;2024-02-14T03:30:19;9.15;;;7.45;;
75295;SDS011;64623;44.738;37.804;2024-02-14T03:31:23;13.10;;;7.43;;
75295;SDS011;64623;44.738;37.804;2024-02-14T03:32:29;15.15;;;9.88;;
75295;SDS011;64623;44.738;37.804;2024-02-14T03:33:33;18.55;;;10.20;;
75295;SDS011;64623;44.738;37.804;2024-02-14T03:34:36;19.55;;;10.80;;
75295;SDS011;64623;44.738;37.804;2024-02-14T03:35:39;18.50;;;10.68;;
75295;SDS011;64623;44.738;37.804;2024-02-14T03:36:43;16.25;;;8.73;;
75295;SDS011;64623;44.738;37.804;2024-02-14T03:37:47;9.98;;;6.60;;
75295;SDS011;64623;44.738;37.804;2024-02-14T03:38:51;16.48;;;9.30;;
75295;SDS011;64623;44.738;37.804;2024-02-14T03:39:54;26.73;;;14.82;;
75295;SDS011;64623;44.738;37.804;2024-02-14T03:40:57;29.42;;;13.90;;
75295;SDS011;64623;44.738;37.804;2024-02-14T03:42:01;23.70;;;12.15;;
75295;SDS011;64623;44.738;37.804;2024-02-14T03:43:10;21.52;;;9.52;;
75295;SDS011;64623;44.738;37.804;2024-02-14T03:44:14;12.13;;;6.55;;
75295;SDS011;64623;44.738;37.804;2024-02-14T03:45:17;17.05;;;6.68;;
75295;SDS011;64623;44.738;37.804;2024-02-14T03:46:21;13.50;;;9.52;;
75295;SDS011;64623;44.738;37.804;2024-02-14T03:47:24;15.63;;;11.05;;
75295;SDS011;64623;44.738;37.804;2024-02-14T03:48:27;14.10;;;10.65;;
75295;SDS011;64623;44.738;37.804;2024-02-14T03:49:30;12.38;;;10.93;;
75295;SDS011;64623;44.738;37.804;2024-02-14T03:50:34;14.73;;;9.85;;
75295;SDS011;64623;44.738;37.804;2024-02-14T03:51:37;12.90;;;7.97;;
75295;SDS011;64623;44.738;37.804;2024-02-14T03:52:40;6.55;;;5.35;;
75295;SDS011;64623;44.738;37.804;2024-02-14T03:53:45;11.20;;;6.50;;
75295;SDS011;64623;44.738;37.804;2024-02-14T03:54:48;8.43;;;5.72;;
75295;SDS011;64623;44.738;37.804;2024-02-14T03:55:51;7.13;;;5.22;;
75295;SDS011;64623;44.738;37.804;2024-02-14T03:56:56;6.40;;;5.75;;
75295;SDS011;64623;44.738;37.804;2024-02-14T03:57:59;9.55;;;6.20;;
75295;SDS011;64623;44.738;37.804;2024-02-14T03:59:03;7.47;;;6.65;;
75295;SDS011;64623;44.738;37.804;2024-02-14T04:00:10;6.85;;;6.15;;
75295;SDS011;64623;44.738;37.804;2024-02-14T04:01:16;9.32;;;5.82;;
75295;SDS011;64623;44.738;37.804;2024-02-14T04:02:20;6.57;;;4.30;;
75295;SDS011;64623;44.738;37.804;2024-02-14T04:03:23;29.38;;;6.47;;
75295;SDS011;64623;44.738;37.804;2024-02-14T04:04:26;43.90;;;11.18;;
75295;SDS011;64623;44.738;37.804;2024-02-14T04:05:30;53.45;;;11.48;;
75295;SDS011;64623;44.738;37.804;2024-02-14T04:06:47;35.10;;;9.15;;
75295;SDS011;64623;44.738;37.804;2024-02-14T04:07:51;25.42;;;7.57;;
75295;SDS011;64623;44.738;37.804;2024-02-14T04:08:54;13.43;;;5.70;;
75295;SDS011;64623;44.738;37.804;2024-02-14T04:09:58;52.45;;;14.63;;
75295;SDS011;64623;44.738;37.804;2024-02-14T04:11:01;52.88;;;14.10;;
75295;SDS011;64623;44.738;37.804;2024-02-14T04:12:04;48.17;;;12.63;;
75295;SDS011;64623;44.738;37.804;2024-02-14T04:13:08;48.47;;;11.57;;
75295;SDS011;64623;44.738;37.804;2024-02-14T04:14:12;44.60;;;10.25;;
75295;SDS011;64623;44.738;37.804;2024-02-14T04:15:15;40.15;;;9.55;;
75295;SDS011;64623;44.738;37.804;2024-02-14T04:16:24;17.02;;;7.25;;
75295;SDS011;64623;44.738;37.804;2024-02-14T04:17:30;9.95;;;5.43;;
75295;SDS011;64623;44.738;37.804;2024-02-14T04:18:33;11.70;;;4.70;;
75295;SDS011;64623;44.738;37.804;2024-02-14T04:19:36;31.77;;;9.18;;
75295;SDS011;64623;44.738;37.804;2024-02-14T04:20:40;58.38;;;16.77;;
75295;SDS011;64623;44.738;37.804;2024-02-14T04:21:44;67.07;;;20.60;;
75295;SDS011;64623;44.738;37.804;2024-02-14T04:22:49;76.80;;;19.70;;
75295;SDS011;64623;44.738;37.804;2024-02-14T04:23:52;40.78;;;13.02;;
75295;SDS011;64623;44.738;37.804;2024-02-14T04:24:55;18.25;;;7.93;;
75295;SDS011;64623;44.738;37.804;2024-02-14T04:25:59;15.38;;;7.75;;
75295;SDS011;64623;44.738;37.804;2024-02-14T04:27:02;15.23;;;7.30;;
75295;SDS011;64623;44.738;37.804;2024-02-14T04:28:06;13.90;;;7.10;;
75295;SDS011;64623;44.738;37.804;2024-02-14T04:29:10;10.65;;;5.93;;
75295;SDS011;64623;44.738;37.804;2024-02-14T04:30:13;9.60;;;5.70;;
75295;SDS011;64623;44.738;37.804;2024-02-14T04:31:36;9.82;;;7.07;;
75295;SDS011;64623;44.738;37.804;2024-02-14T04:32:41;8.68;;;5.30;;
75295;SDS011;64623;44.738;37.804;2024-02-14T04:33:46;8.32;;;7.05;;
75295;SDS011;64623;44.738;37.804;2024-02-14T04:34:54;7.43;;;6.10;;
75295;SDS011;64623;44.738;37.804;2024-02-14T04:35:59;6.63;;;5.88;;
75295;SDS011;64623;44.738;37.804;2024-02-14T04:37:02;6.28;;;5.45;;
75295;SDS011;64623;44.738;37.804;2024-02-14T04:38:12;10.35;;;5.10;;
75295;SDS011;64623;44.738;37.804;2024-02-14T04:39:15;6.70;;;5.47;;
75295;SDS011;64623;44.738;37.804;2024-02-14T04:40:19;5.80;;;5.28;;
75295;SDS011;64623;44.738;37.804;2024-02-14T04:41:22;5.93;;;5.35;;
75295;SDS011;64623;44.738;37.804;2024-02-14T04:42:26;7.43;;;5.07;;
75295;SDS011;64623;44.738;37.804;2024-02-14T04:43:30;6.75;;;4.93;;
75295;SDS011;64623;44.738;37.804;2024-02-14T04:44:34;6.15;;;5.03;;
75295;SDS011;64623;44.738;37.804;2024-02-14T04:45:38;5.32;;;4.80;;
75295;SDS011;64623;44.738;37.804;2024-02-14T04:46:44;7.00;;;5.25;;
75295;SDS011;64623;44.738;37.804;2024-02-14T04:47:47;6.63;;;5.55;;
75295;SDS011;64623;44.738;37.804;2024-02-14T04:48:51;7.80;;;5.30;;
75295;SDS011;64623;44.738;37.804;2024-02-14T04:49:54;5.65;;;5.07;;
75295;SDS011;64623;44.738;37.804;2024-02-14T04:50:58;8.80;;;5.70;;
75295;SDS011;64623;44.738;37.804;2024-02-14T04:52:03;5.45;;;4.97;;
75295;SDS011;64623;44.738;37.804;2024-02-14T04:53:07;7.70;;;5.43;;
75295;SDS011;64623;44.738;37.804;2024-02-14T04:54:11;12.20;;;5.88;;
75295;SDS011;64623;44.738;37.804;2024-02-14T04:55:16;12.63;;;6.47;;
75295;SDS011;64623;44.738;37.804;2024-02-14T04:56:20;48.20;;;24.13;;
75295;SDS011;64623;44.738;37.804;2024-02-14T04:57:23;28.70;;;16.08;;
75295;SDS011;64623;44.738;37.804;2024-02-14T04:58:26;21.70;;;10.93;;
75295;SDS011;64623;44.738;37.804;2024-02-14T04:59:30;13.43;;;8.20;;
75295;SDS011;64623;44.738;37.804;2024-02-14T05:00:33;12.75;;;7.55;;
75295;SDS011;64623;44.738;37.804;2024-02-14T05:01:36;21.50;;;13.02;;
75295;SDS011;64623;44.738;37.804;2024-02-14T05:02:40;13.80;;;8.98;;
75295;SDS011;64623;44.738;37.804;2024-02-14T05:03:43;54.60;;;19.05;;
75295;SDS011;64623;44.738;37.804;2024-02-14T05:04:47;53.80;;;16.42;;
75295;SDS011;64623;44.738;37.804;2024-02-14T05:05:50;49.95;;;15.93;;
75295;SDS011;64623;44.738;37.804;2024-02-14T05:06:53;25.63;;;12.18;;
75295;SDS011;64623;44.738;37.804;2024-02-14T05:07:57;21.00;;;9.00;;
75295;SDS011;64623;44.738;37.804;2024-02-14T05:09:01;10.20;;;6.28;;
75295;SDS011;64623;44.738;37.804;2024-02-14T05:10:04;10.27;;;5.90;;
75295;SDS011;64623;44.738;37.804;2024-02-14T05:11:09;8.55;;;4.97;;
75295;SDS011;64623;44.738;37.804;2024-02-14T05:12:12;9.10;;;5.38;;
75295;SDS011;64623;44.738;37.804;2024-02-14T05:13:16;7.68;;;5.95;;
75295;SDS011;64623;44.738;37.804;2024-02-14T05:14:19;46.22;;;13.27;;
75295;SDS011;64623;44.738;37.804;2024-02-14T05:15:23;37.33;;;13.45;;
75295;SDS011;64623;44.738;37.804;2024-02-14T05:16:26;50.83;;;13.77;;
75295;SDS011;64623;44.738;37.804;2024-02-14T05:17:30;43.83;;;12.82;;
75295;SDS011;64623;44.738;37.804;2024-02-14T05:18:33;29.60;;;12.95;;
75295;SDS011;64623;44.738;37.804;2024-02-14T05:19:37;20.17;;;8.93;;
75295;SDS011;64623;44.738;37.804;2024-02-14T05:20:40;14.48;;;7.78;;
75295;SDS011;64623;44.738;37.804;2024-02-14T05:21:43;9.32;;;6.45;;
75295;SDS011;64623;44.738;37.804;2024-02-14T05:22:47;41.95;;;16.70;;
75295;SDS011;64623;44.738;37.804;2024-02-14T05:23:50;41.15;;;17.05;;
75295;SDS011;64623;44.738;37.804;2024-02-14T05:24:53;26.00;;;14.30;;
75295;SDS011;64623;44.738;37.804;2024-02-14T05:25:57;19.17;;;8.43;;
75295;SDS011;64623;44.738;37.804;2024-02-14T05:27:00;12.77;;;6.82;;
75295;SDS011;64623;44.738;37.804;2024-02-14T05:28:03;23.90;;;13.40;;
75295;SDS011;64623;44.738;37.804;2024-02-14T05:29:07;19.38;;;12.55;;
75295;SDS011;64623;44.738;37.804;2024-02-14T05:30:10;46.95;;;23.65;;
75295;SDS011;64623;44.738;37.804;2024-02-14T05:31:28;44.85;;;17.40;;
75295;SDS011;64623;44.738;37.804;2024-02-14T05:32:48;43.30;;;16.30;;
75295;SDS011;64623;44.738;37.804;2024-02-14T05:33:52;60.25;;;24.73;;
75295;SDS011;64623;44.738;37.804;2024-02-14T05:34:55;68.90;;;23.35;;
75295;SDS011;64623;44.738;37.804;2024-02-14T05:35:58;60.55;;;22.38;;
75295;SDS011;64623;44.738;37.804;2024-02-14T05:37:02;54.80;;;20.98;;
75295;SDS011;64623;44.738;37.804;2024-02-14T05:38:05;47.75;;;16.83;;
75295;SDS011;64623;44.738;37.804;2024-02-14T05:39:10;44.72;;;18.02;;
75295;SDS011;64623;44.738;37.804;2024-02-14T05:40:13;42.17;;;16.27;;
75295;SDS011;64623;44.738;37.804;2024-02-14T05:41:16;36.50;;;18.08;;
75295;SDS011;64623;44.738;37.804;2024-02-14T05:42:21;37.10;;;14.10;;
75295;SDS011;64623;44.738;37.804;2024-02-14T05:43:24;29.20;;;14.13;;
75295;SDS011;64623;44.738;37.804;2024-02-14T05:44:28;34.22;;;13.20;;
75295;SDS011;64623;44.738;37.804;2024-02-14T05:45:33;31.75;;;12.57;;
75295;SDS011;64623;44.738;37.804;2024-02-14T05:46:36;29.88;;;12.95;;
75295;SDS011;64623;44.738;37.804;2024-02-14T05:47:40;33.03;;;10.93;;
75295;SDS011;64623;44.738;37.804;2024-02-14T05:48:43;24.58;;;10.77;;
75295;SDS011;64623;44.738;37.804;2024-02-14T05:49:46;30.58;;;11.38;;
75295;SDS011;64623;44.738;37.804;2024-02-14T05:50:49;47.05;;;12.98;;
75295;SDS011;64623;44.738;37.804;2024-02-14T05:51:53;37.78;;;12.45;;
75295;SDS011;64623;44.738;37.804;2024-02-14T05:52:58;23.40;;;9.57;;
75295;SDS011;64623;44.738;37.804;2024-02-14T05:54:01;17.20;;;8.98;;
75295;SDS011;64623;44.738;37.804;2024-02-14T05:55:04;19.65;;;8.15;;
75295;SDS011;64623;44.738;37.804;2024-02-14T05:56:10;21.02;;;8.75;;
75295;SDS011;64623;44.738;37.804;2024-02-14T05:57:13;44.67;;;24.42;;
75295;SDS011;64623;44.738;37.804;2024-02-14T05:58:17;100.15;;;48.45;;
75295;SDS011;64623;44.738;37.804;2024-02-14T05:59:20;77.38;;;37.05;;
75295;SDS011;64623;44.738;37.804;2024-02-14T06:00:24;96.32;;;36.80;;
75295;SDS011;64623;44.738;37.804;2024-02-14T06:01:30;96.53;;;45.53;;
75295;SDS011;64623;44.738;37.804;2024-02-14T06:02:33;112.95;;;42.30;;
75295;SDS011;64623;44.738;37.804;2024-02-14T06:03:36;98.60;;;38.60;;
75295;SDS011;64623;44.738;37.804;2024-02-14T06:04:40;75.32;;;38.40;;
75295;SDS011;64623;44.738;37.804;2024-02-14T06:05:45;45.67;;;20.40;;
75295;SDS011;64623;44.738;37.804;2024-02-14T06:06:49;52.90;;;22.02;;
75295;SDS011;64623;44.738;37.804;2024-02-14T06:07:52;34.80;;;14.18;;
75295;SDS011;64623;44.738;37.804;2024-02-14T06:08:55;38.17;;;13.48;;
75295;SDS011;64623;44.738;37.804;2024-02-14T06:10:00;40.67;;;14.10;;
75295;SDS011;64623;44.738;37.804;2024-02-14T06:11:05;41.65;;;17.30;;
75295;SDS011;64623;44.738;37.804;2024-02-14T06:12:08;26.98;;;13.88;;
75295;SDS011;64623;44.738;37.804;2024-02-14T06:13:12;28.17;;;12.32;;
75295;SDS011;64623;44.738;37.804;2024-02-14T06:14:15;21.05;;;11.85;;
75295;SDS011;64623;44.738;37.804;2024-02-14T06:15:18;24.50;;;8.95;;
75295;SDS011;64623;44.738;37.804;2024-02-14T06:16:22;24.13;;;10.35;;
75295;SDS011;64623;44.738;37.804;2024-02-14T06:17:25;16.75;;;8.63;;
75295;SDS011;64623;44.738;37.804;2024-02-14T06:18:29;13.55;;;7.47;;
75295;SDS011;64623;44.738;37.804;2024-02-14T06:19:32;12.38;;;7.05;;
75295;SDS011;64623;44.738;37.804;2024-02-14T06:20:38;15.52;;;7.10;;
75295;SDS011;64623;44.738;37.804;2024-02-14T06:21:41;12.00;;;5.90;;
75295;SDS011;64623;44.738;37.804;2024-02-14T06:22:45;9.43;;;7.03;;
75295;SDS011;64623;44.738;37.804;2024-02-14T06:23:48;8.55;;;5.95;;
75295;SDS011;64623;44.738;37.804;2024-02-14T06:24:52;10.65;;;5.82;;
75295;SDS011;64623;44.738;37.804;2024-02-14T06:25:55;14.90;;;5.93;;
75295;SDS011;64623;44.738;37.804;2024-02-14T06:26:58;14.88;;;5.60;;
75295;SDS011;64623;44.738;37.804;2024-02-14T06:28:01;12.60;;;5.63;;
75295;SDS011;64623;44.738;37.804;2024-02-14T06:29:05;14.43;;;5.80;;
75295;SDS011;64623;44.738;37.804;2024-02-14T06:30:08;13.52;;;5.72;;
75295;SDS011;64623;44.738;37.804;2024-02-14T06:31:12;12.80;;;5.97;;
75295;SDS011;64623;44.738;37.804;2024-02-14T06:32:16;11.43;;;5.32;;